Home   Weather   Slovakia   Prešov   Past weeks
Flag for Slovakia

Past Weather in Prešov, Slovakia — Yesterday and Last 2 Weeks

Currently: 57 °F. Sunny. (Weather station: Kosice - Barca, Slovakia). See more current weather

Past Weather in Prešov — Graph

°F

Prešov Temperature Yesterday

Maximum temperature yesterday: 70 °F (at 4:30 pm)
Minimum temperature yesterday: 57 °F (at 12:30 am)
Average temperature yesterday: 63 °F

High & Low Weather Summary for the Past Weeks

 TemperatureHumidityPressure
High79 °F (Jun 7, 4:00 pm)100% (Jun 5, 9:00 pm)30.27 "Hg (Jun 5, 9:00 pm)
Low41 °F (Jun 3, 5:00 am)27% (Jun 3, 4:30 pm)29.83 "Hg (Jun 12, 9:00 pm)
Average64 °F58%30.07 "Hg
* Reported May 31 5:00 am — Jun 15 5:00 am, Prešov. Weather by CustomWeather, © 2021

Note: Actual official high and low records may vary slightly from our data, if they occured in-between our weather recording intervals... More about our weather records

Prešov Weather History for the Previous 24 Hours

Scroll right to see more
 ConditionsComfort  
Time TempWeatherWind HumidityBarometerVisibility
5:00 am
Tue, Jun 15
52 °FSunny.1 mph72%30.07 "Hg10 mi
4:30 am55 °FClear.2 mph63%30.07 "Hg10 mi
4:00 am57 °FClear.8 mph59%30.07 "Hg10 mi
3:30 am52 °FClear.5 mph72%30.09 "Hg10 mi
3:00 am57 °FClear.2 mph59%30.09 "Hg10 mi
2:30 am55 °FClear.5 mph63%30.09 "Hg10 mi
2:00 am59 °FClear.3 mph55%30.07 "Hg10 mi
1:30 am61 °FClear.10 mph52%30.09 "Hg10 mi
1:00 am61 °FClear.9 mph52%30.09 "Hg10 mi
12:30 am61 °FClear.10 mph55%30.09 "Hg10 mi
12:00 am63 °FClear.8 mph52%30.09 "Hg10 mi
11:30 pm
Mon, Jun 14
63 °FClear.7 mph52%30.09 "Hg10 mi
11:00 pm64 °FClear.12 mph46%30.09 "Hg10 mi
10:30 pm64 °FClear.12 mph46%30.09 "Hg10 mi
10:00 pm64 °FClear.13 mph46%30.09 "Hg10 mi
9:30 pm66 °FClear.8 mph43%30.09 "Hg10 mi
9:00 pm66 °FClear.8 mph46%30.07 "Hg10 mi
8:30 pm66 °FSunny.8 mph46%30.07 "Hg10 mi
8:00 pm68 °FSunny.9 mph43%30.07 "Hg10 mi
7:30 pm68 °FSunny.13 mph40%30.07 "Hg10 mi
7:00 pm68 °FSunny.9 mph40%30.04 "Hg10 mi
6:30 pm68 °FSunny.10 mph40%30.07 "Hg10 mi
6:00 pm68 °FSunny.13 mph40%30.07 "Hg10 mi
5:30 pm68 °FSunny.20 mph40%30.07 "Hg10 mi
5:00 pm68 °FSunny.16 mph40%30.07 "Hg10 mi
4:30 pm70 °FPassing clouds.16 mph38%30.07 "HgN/A
4:00 pm68 °FSunny.15 mph38%30.07 "Hg10 mi
3:30 pm68 °FSunny.14 mph40%30.07 "Hg10 mi
3:00 pm66 °FSunny.18 mph40%30.07 "Hg10 mi
2:30 pm68 °FSunny.18 mph40%30.09 "Hg10 mi
2:00 pm66 °FPassing clouds.14 mph43%30.09 "HgN/A
1:30 pm64 °FSunny.21 mph46%30.09 "Hg10 mi
1:00 pm66 °FSunny.24 mph43%30.09 "Hg10 mi
12:30 pm66 °FSunny.25 mph40%30.09 "Hg10 mi
12:00 pm64 °FPassing clouds.20 mph46%30.09 "HgN/A
11:30 am63 °FScattered clouds.21 mph49%30.09 "HgN/A
11:00 am63 °FScattered clouds.17 mph49%30.09 "HgN/A
10:30 am63 °FPassing clouds.15 mph52%30.09 "HgN/A
10:00 am63 °FPassing clouds.14 mph59%30.12 "HgN/A
9:30 am59 °FScattered clouds.16 mph63%30.09 "HgN/A
9:00 am59 °FScattered clouds.20 mph63%30.12 "HgN/A
8:30 am59 °FScattered clouds.18 mph63%30.09 "HgN/A
8:00 am59 °FScattered clouds.16 mph68%30.09 "HgN/A
7:30 am57 °FPartly sunny.15 mph67%30.12 "HgN/A
7:00 am57 °FScattered clouds.14 mph67%30.09 "HgN/A
6:30 am57 °FScattered clouds.16 mph63%30.09 "HgN/A
6:00 am57 °FScattered clouds.13 mph63%30.09 "HgN/A
Weather by CustomWeather, © 2021

See weather overview